Time;durP1;ratioP1;P1;durP2;ratioP2;P2;SDS_P1;SDS_P2;PMS_P1;PMS_P2;Temp;Humidity;BMP_temperature;BMP_pressure;BME280_temperature;BME280_humidity;BME280_pressure;Samples;Min_cycle;Max_cycle;Signal;HPM_P1;HPM_P2
2021/01/24 00:00:56;;;;;;;5.03;3.67;;;;;;;4.11;100.00;96055.69;5018661;28;20065;-87
2021/01/24 00:03:22;;;;;;;;;;;;;;;4.07;100.00;96033.03;5021159;28;20533;-87
2021/01/24 00:05:48;;;;;;;4.28;3.50;;;;;;;3.74;100.00;95997.19;5021157;28;19913;-82
2021/01/24 00:08:15;;;;;;;3.90;3.53;;;;;;;3.74;100.00;96012.63;5022084;28;20108;-87
2021/01/24 00:10:41;;;;;;;4.32;3.60;;;;;;;3.84;100.00;96009.72;5014037;28;20060;-90
2021/01/24 00:13:07;;;;;;;7.28;4.25;;;;;;;3.99;100.00;96035.66;5014003;28;20018;-85
2021/01/24 00:15:32;;;;;;;6.05;4.22;;;;;;;3.72;100.00;95995.91;5013538;28;20399;-81
2021/01/24 00:17:58;;;;;;;4.78;3.30;;;;;;;3.71;100.00;95988.88;5018872;28;20026;-85
2021/01/24 00:20:25;;;;;;;4.35;3.95;;;;;;;3.75;100.00;96000.72;5014784;28;20030;-82
2021/01/24 00:22:51;;;;;;;6.13;4.53;;;;;;;3.64;100.00;95988.47;5033177;28;20038;-89
2021/01/24 00:25:17;;;;;;;8.85;4.13;;;;;;;3.70;100.00;96004.31;5025388;28;20076;-88
2021/01/24 00:27:43;;;;;;;6.47;3.50;;;;;;;3.70;100.00;96004.31;5019773;28;20030;-85
2021/01/24 00:30:10;;;;;;;4.60;3.42;;;;;;;3.90;100.00;96027.44;5015884;28;20045;-88
2021/01/24 00:32:36;;;;;;;5.38;4.18;;;;;;;3.68;100.00;95986.78;5022877;28;20046;-87
2021/01/24 00:35:04;;;;;;;5.53;3.80;;;;;;;3.62;100.00;95985.28;5019671;28;20175;-89
2021/01/24 00:37:29;;;;;;;6.40;4.18;;;;;;;3.70;100.00;95995.38;5019695;28;20548;-82
2021/01/24 00:39:55;;;;;;;3.60;3.17;;;;;;;3.87;100.00;96017.22;5020159;28;20030;-89
2021/01/24 00:42:20;;;;;;;4.28;3.45;;;;;;;3.79;100.00;96009.81;5035569;28;20063;-88
2021/01/24 00:44:46;;;;;;;4.38;3.30;;;;;;;3.87;100.00;96021.84;5034120;28;20026;-89
2021/01/24 00:47:11;;;;;;;7.43;4.43;;;;;;;3.84;100.00;96012.44;5017408;28;20375;-86
2021/01/24 00:49:37;;;;;;;5.07;3.67;;;;;;;3.94;100.00;96009.53;5000056;28;20033;-85
2021/01/24 00:52:02;;;;;;;3.60;3.30;;;;;;;4.04;100.00;96012.00;5016000;28;20120;-86
2021/01/24 00:54:28;;;;;;;4.55;3.72;;;;;;;3.89;100.00;96001.50;5016800;28;20497;-90
2021/01/24 00:56:53;;;;;;;4.60;3.35;;;;;;;3.95;100.00;96008.41;5016664;28;20045;-90
2021/01/24 00:59:19;;;;;;;3.80;3.40;;;;;;;3.92;100.00;96002.78;5016922;28;20025;-80
2021/01/24 01:01:44;;;;;;;4.82;4.30;;;;;;;3.98;100.00;96028.66;5015848;28;20045;-87
2021/01/24 01:04:09;;;;;;;;;;;;;;;4.02;100.00;96029.66;5021692;28;20021;-87
2021/01/24 01:06:39;;;;;;;5.82;4.47;;;;;;;3.76;100.00;95995.00;5026783;28;19936;-86
2021/01/24 01:09:08;;;;;;;9.20;5.25;;;;;;;3.77;100.00;96006.59;5016820;28;20026;-88
2021/01/24 01:11:40;;;;;;;4.65;4.10;;;;;;;4.01;100.00;96052.41;5017224;28;20021;-90
2021/01/24 01:14:21;;;;;;;4.53;3.92;;;;;;;3.96;100.00;96037.06;5073105;23;20053;-87
2021/01/24 01:19:29;;;;;;;6.70;5.18;;;;;;;3.84;100.00;96012.44;5133155;23;20053;-88
2021/01/24 01:22:04;;;;;;;4.35;3.70;;;;;;;3.84;100.00;96022.44;5001865;28;20022;-84
2021/01/24 01:24:36;;;;;;;4.17;3.77;;;;;;;3.78;100.00;96019.84;5005367;28;20072;-90
2021/01/24 01:27:02;;;;;;;4.05;3.45;;;;;;;3.70;100.00;96019.72;5006421;28;20272;-77
2021/01/24 01:29:27;;;;;;;6.55;3.95;;;;;;;3.67;100.00;96018.41;5002285;28;20387;-76
2021/01/24 01:31:52;;;;;;;6.10;3.92;;;;;;;3.71;100.00;96019.44;5002198;28;20229;-76
2021/01/24 01:34:18;;;;;;;4.57;3.42;;;;;;;3.74;100.00;96031.53;4997247;28;20475;-76
2021/01/24 01:36:43;;;;;;;4.57;3.83;;;;;;;3.71;100.00;96018.63;4994010;28;20038;-77
2021/01/24 01:39:09;;;;;;;2.40;2.10;;;;;;;3.73;100.00;96016.41;4995629;28;20029;-76
2021/01/24 01:41:34;;;;;;;;;;;;;;;3.69;100.00;96026.25;4995009;28;20113;-77
2021/01/24 01:44:01;;;;;;;2.80;2.30;;;;;;;3.58;100.00;96020.22;4998890;28;19925;-79
2021/01/24 01:46:28;;;;;;;2.78;2.40;;;;;;;3.50;100.00;96012.81;5003102;28;20019;-77
2021/01/24 01:48:53;;;;;;;3.72;2.65;;;;;;;3.49;100.00;96008.50;5001044;28;20541;-82
2021/01/24 01:51:19;;;;;;;3.45;2.53;;;;;;;3.78;100.00;96038.78;4992387;28;20149;-81
2021/01/24 01:53:46;;;;;;;2.97;2.38;;;;;;;3.66;100.00;96016.84;4993570;28;20057;-86
2021/01/24 01:56:12;;;;;;;3.15;2.33;;;;;;;3.75;100.00;96033.97;4993394;28;20154;-81
2021/01/24 01:58:38;;;;;;;4.15;2.85;;;;;;;3.61;100.00;96013.41;4991856;28;20029;-79
2021/01/24 02:01:10;;;;;;;3.28;2.38;;;;;;;3.70;100.00;96031.34;4993011;28;20026;-85
2021/01/24 02:03:42;;;;;;;7.15;3.10;;;;;;;3.74;100.00;96026.94;4993077;28;20054;-83
2021/01/24 02:06:31;;;;;;;5.82;3.72;;;;;;;3.81;100.00;96040.06;4993038;28;20026;-84
2021/01/24 02:09:18;;;;;;;5.78;3.72;;;;;;;3.78;100.00;96029.84;4991718;28;20476;-83
2021/01/24 02:12:03;;;;;;;4.57;3.60;;;;;;;3.94;100.00;96038.47;4992061;28;20035;-85
2021/01/24 02:14:33;;;;;;;6.55;3.42;;;;;;;3.78;100.00;96013.63;4991462;28;20026;-80
2021/01/24 02:17:04;;;;;;;4.30;3.40;;;;;;;3.90;100.00;96034.75;4992876;28;20045;-82
2021/01/24 02:20:00;;;;;;;6.32;3.55;;;;;;;3.78;100.00;96019.03;4992819;28;20054;-81
2021/01/24 02:22:30;;;;;;;4.78;3.63;;;;;;;3.83;100.00;96032.44;4999704;28;20074;-81
2021/01/24 02:25:11;;;;;;;7.53;3.95;;;;;;;3.91;100.00;96037.19;4991006;28;20030;-82
2021/01/24 02:27:41;;;;;;;8.85;4.78;;;;;;;3.90;100.00;96042.88;4990618;28;20018;-81
2021/01/24 02:30:19;;;;;;;9.82;4.72;;;;;;;3.86;100.00;96045.38;4990324;28;20065;-80
2021/01/24 02:32:47;;;;;;;7.93;4.63;;;;;;;3.93;100.00;96051.19;4992041;28;20038;-81
2021/01/24 02:35:13;;;;;;;9.15;4.40;;;;;;;3.96;100.00;96039.75;4991142;28;20537;-83
2021/01/24 02:37:40;;;;;;;8.15;4.30;;;;;;;3.79;100.00;96020.63;4990718;28;20125;-82
2021/01/24 02:40:08;;;;;;;10.70;4.82;;;;;;;3.85;100.00;96018.63;4991636;28;20037;-80
2021/01/24 02:42:35;;;;;;;8.48;3.92;;;;;;;3.78;100.00;96029.84;4991180;28;20045;-80
2021/01/24 02:45:00;;;;;;;11.82;4.35;;;;;;;3.79;100.00;96047.66;4992811;28;20472;-83
2021/01/24 02:47:27;;;;;;;6.35;4.13;;;;;;;3.73;100.00;96040.75;4991074;28;20056;-81
2021/01/24 02:49:54;;;;;;;7.97;4.00;;;;;;;3.64;100.00;96029.81;4992679;28;20032;-79
2021/01/24 02:52:19;;;;;;;6.13;4.10;;;;;;;3.76;100.00;96023.91;4992396;28;20599;-82
2021/01/24 02:54:45;;;;;;;4.90;4.00;;;;;;;3.76;100.00;96026.63;4990948;28;20054;-82
2021/01/24 02:57:11;;;;;;;11.30;4.75;;;;;;;3.81;100.00;96029.25;4990970;28;20027;-82
2021/01/24 02:59:38;;;;;;;6.38;4.72;;;;;;;3.71;100.00;96026.72;4990926;28;20415;-82
2021/01/24 03:02:03;;;;;;;6.20;4.15;;;;;;;3.83;100.00;96031.63;4990894;28;20515;-85
2021/01/24 03:04:28;;;;;;;7.03;3.78;;;;;;;3.89;100.00;96025.84;4990911;28;20024;-83
2021/01/24 03:06:55;;;;;;;14.10;4.57;;;;;;;3.83;100.00;96024.34;4990854;28;20040;-84
2021/01/24 03:09:21;;;;;;;5.78;4.25;;;;;;;3.83;100.00;96026.22;4992323;28;20030;-82
2021/01/24 03:11:48;;;;;;;4.90;3.55;;;;;;;3.81;100.00;96010.31;4991437;28;20084;-83
2021/01/24 03:14:21;;;;;;;5.10;3.88;;;;;;;3.71;100.00;96022.13;4991157;28;20027;-84
2021/01/24 03:16:49;;;;;;;4.97;4.03;;;;;;;3.71;100.00;96024.03;4991736;28;20026;-82
2021/01/24 03:19:20;;;;;;;4.57;4.00;;;;;;;3.50;100.00;96006.59;4990665;28;20105;-85
2021/01/24 03:21:47;;;;;;;5.25;3.22;;;;;;;3.55;100.00;96015.41;4990535;28;20058;-80
2021/01/24 03:24:14;;;;;;;6.63;4.38;;;;;;;3.64;100.00;96034.44;4990242;28;20073;-81
2021/01/24 03:26:40;;;;;;;10.18;4.20;;;;;;;3.51;100.00;96027.91;4990651;28;20026;-81
2021/01/24 03:29:05;;;;;;;7.07;3.88;;;;;;;3.34;100.00;96022.28;4990582;28;20034;-78
2021/01/24 03:31:34;;;;;;;6.47;5.53;;;;;;;3.39;100.00;96048.38;4991724;28;20562;-82
2021/01/24 03:34:03;;;;;;;6.03;4.15;;;;;;;3.42;100.00;96047.78;4992215;28;20023;-81
2021/01/24 03:36:29;;;;;;;5.57;4.07;;;;;;;3.40;100.00;96025.69;4988918;28;20022;-81
2021/01/24 03:38:54;;;;;;;9.50;6.50;;;;;;;3.24;100.00;96046.75;4989834;28;20037;-79
2021/01/24 03:41:19;;;;;;;;;;;;;;;3.27;100.00;96050.75;4975094;28;20198;-81
2021/01/24 03:43:45;;;;;;;5.30;4.05;;;;;;;3.14;100.00;96025.31;5006267;28;19920;-82
2021/01/24 03:46:10;;;;;;;;;;;;;;;3.33;100.00;96060.38;4990526;28;20476;-77
2021/01/24 03:48:35;;;;;;;5.78;4.60;;;;;;;3.16;100.00;96034.72;4991728;28;19910;-84
2021/01/24 03:51:00;;;;;;;;;;;;;;;3.42;100.00;96064.00;4990537;28;20027;-80
2021/01/24 03:53:26;;;;;;;8.32;3.95;;;;;;;3.52;100.00;96061.94;4991754;28;20367;-86
2021/01/24 03:55:51;;;;;;;;;;;;;;;3.49;100.00;96069.84;4996187;28;20063;-86
2021/01/24 03:58:17;;;;;;;8.02;5.38;;;;;;;3.33;100.00;96054.97;4994544;28;19924;-87
2021/01/24 04:00:42;;;;;;;7.97;4.90;;;;;;;3.46;100.00;96065.03;4994667;28;20081;-82
2021/01/24 04:03:08;;;;;;;7.45;4.90;;;;;;;3.34;100.00;96043.88;4995024;28;20105;-83
2021/01/24 04:05:33;;;;;;;8.00;5.18;;;;;;;3.46;100.00;96048.81;4993859;28;20115;-83
2021/01/24 04:07:59;;;;;;;;;;;;;;;3.56;100.00;96060.25;4994534;28;20463;-81
2021/01/24 04:10:24;;;;;;;7.43;4.47;;;;;;;3.50;100.00;96052.53;5010274;28;19914;-80
2021/01/24 04:12:49;;;;;;;;;;;;;;;3.55;100.00;96071.34;4994714;28;20373;-79
2021/01/24 04:15:17;;;;;;;9.32;5.18;;;;;;;3.46;100.00;96044.22;4995286;28;19914;-77
2021/01/24 04:17:43;;;;;;;7.88;5.82;;;;;;;3.59;100.00;96058.84;4993930;28;20081;-80
2021/01/24 04:20:09;;;;;;;6.18;4.22;;;;;;;3.56;100.00;96059.44;4993695;28;20431;-79
2021/01/24 04:22:35;;;;;;;6.95;4.80;;;;;;;3.44;100.00;96062.63;4995127;28;20035;-81
2021/01/24 04:25:02;;;;;;;6.43;4.57;;;;;;;3.59;100.00;96064.25;4995191;28;20026;-82
2021/01/24 04:27:27;;;;;;;6.25;4.38;;;;;;;3.69;100.00;96074.91;4994419;28;20073;-80
2021/01/24 04:29:52;;;;;;;11.73;6.57;;;;;;;3.53;100.00;96060.03;4994622;28;20427;-80
2021/01/24 04:32:18;;;;;;;6.38;5.03;;;;;;;3.63;100.00;96073.38;4993222;28;20037;-79
2021/01/24 04:34:44;;;;;;;6.10;4.75;;;;;;;3.51;100.00;96070.38;4993257;28;20129;-81
2021/01/24 04:37:10;;;;;;;6.55;4.72;;;;;;;3.59;100.00;96075.06;4993376;28;20034;-82
2021/01/24 04:39:35;;;;;;;7.10;5.13;;;;;;;3.52;100.00;96063.84;4993382;28;20114;-81
2021/01/24 04:42:01;;;;;;;8.88;5.70;;;;;;;3.60;100.00;96063.19;4995103;28;20118;-78
2021/01/24 04:44:27;;;;;;;5.30;3.80;;;;;;;3.49;100.00;96072.53;4993382;28;20120;-80
2021/01/24 04:46:53;;;;;;;9.18;4.60;;;;;;;3.66;100.00;96076.31;4993265;28;20078;-83
2021/01/24 04:49:19;;;;;;;5.93;4.45;;;;;;;3.79;100.00;96072.78;4994543;28;20439;-80
2021/01/24 04:51:44;;;;;;;;;;;;;;;3.70;100.00;96098.91;4995047;28;20023;-81
2021/01/24 04:54:11;;;;;;;5.70;4.40;;;;;;;3.62;100.00;96098.81;4993181;28;20291;-85
2021/01/24 04:56:38;;;;;;;5.45;4.68;;;;;;;3.64;100.00;96099.28;4993101;28;20034;-79
2021/01/24 04:59:04;;;;;;;7.22;4.70;;;;;;;3.65;100.00;96106.31;4993053;28;20093;-81
2021/01/24 05:01:31;;;;;;;5.45;4.57;;;;;;;3.55;100.00;96082.16;4993163;28;20042;-83
2021/01/24 05:03:58;;;;;;;6.93;4.57;;;;;;;3.59;100.00;96121.81;4993127;28;20377;-80
2021/01/24 05:06:24;;;;;;;6.15;4.25;;;;;;;3.67;100.00;96115.72;4993309;28;20377;-80
2021/01/24 05:08:49;;;;;;;6.30;4.40;;;;;;;3.76;100.00;96102.31;4993774;28;20022;-81
2021/01/24 05:11:14;;;;;;;6.32;4.88;;;;;;;3.83;100.00;96108.16;4992191;28;20026;-83
2021/01/24 05:13:40;;;;;;;;;;;;;;;3.89;100.00;96116.97;4992790;28;20391;-81
2021/01/24 05:16:06;;;;;;;8.02;5.00;;;;;;;3.82;100.00;96114.69;4992159;28;20283;-81
2021/01/24 05:18:33;;;;;;;5.50;4.03;;;;;;;3.90;100.00;96130.22;4992043;28;20129;-79
2021/01/24 05:20:58;;;;;;;7.47;5.07;;;;;;;3.91;100.00;96131.00;4992284;28;20036;-81
2021/01/24 05:23:25;;;;;;;5.82;4.30;;;;;;;3.84;100.00;96115.19;4993018;28;20022;-79
2021/01/24 05:25:55;;;;;;;6.82;4.57;;;;;;;3.84;100.00;96136.81;4993847;28;20767;-87
2021/01/24 05:28:26;;;;;;;6.40;5.30;;;;;;;3.64;100.00;96120.91;4994233;28;20058;-77
2021/01/24 05:31:02;;;;;;;8.63;4.72;;;;;;;3.85;100.00;96143.81;4993396;28;20771;-81
2021/01/24 05:33:28;;;;;;;10.02;4.93;;;;;;;3.92;100.00;96138.81;4992289;28;20046;-81
2021/01/24 05:35:53;;;;;;;8.38;5.90;;;;;;;3.86;100.00;96145.41;4993419;28;20169;-82
2021/01/24 05:38:32;;;;;;;10.65;5.93;;;;;;;3.74;100.00;96131.56;4992469;28;20032;-85
2021/01/24 05:41:04;;;;;;;8.90;6.35;;;;;;;3.62;100.00;96133.94;4992719;28;20042;-88
2021/01/24 05:43:39;;;;;;;7.45;6.15;;;;;;;3.42;100.00;96124.25;4992467;28;20026;-85
2021/01/24 05:46:05;;;;;;;10.35;6.03;;;;;;;3.62;100.00;96137.44;4993570;28;20042;-80
2021/01/24 05:48:33;;;;;;;10.20;6.70;;;;;;;3.59;100.00;96137.25;4993567;28;20030;-80
2021/01/24 05:51:07;;;;;;;7.72;5.80;;;;;;;3.53;100.00;96112.19;4993266;28;20113;-83
2021/01/24 05:53:47;;;;;;;7.75;5.75;;;;;;;3.50;100.00;96133.59;4992404;28;20483;-82
2021/01/24 05:56:18;;;;;;;7.80;4.95;;;;;;;3.37;100.00;96115.44;4991729;28;20044;-79
2021/01/24 05:58:43;;;;;;;11.10;6.03;;;;;;;3.54;100.00;96126.53;4993053;28;20081;-76
2021/01/24 06:01:09;;;;;;;8.65;6.45;;;;;;;3.55;100.00;96118.09;4993254;28;20034;-79
2021/01/24 06:03:36;;;;;;;8.88;6.28;;;;;;;3.28;100.00;96107.22;4993430;28;20126;-89
2021/01/24 06:06:03;;;;;;;14.23;8.35;;;;;;;3.35;100.00;96131.16;4992520;28;20464;-84
2021/01/24 06:08:29;;;;;;;11.15;6.25;;;;;;;3.14;100.00;96122.53;4991884;28;20030;-79
2021/01/24 06:10:57;;;;;;;8.35;5.88;;;;;;;3.30;100.00;96136.63;4992013;28;20496;-84
2021/01/24 06:13:29;;;;;;;6.82;5.32;;;;;;;3.18;100.00;96135.19;4992011;28;20030;-82
2021/01/24 06:16:06;;;;;;;7.40;5.28;;;;;;;3.14;100.00;96141.44;4991069;28;20040;-80
2021/01/24 06:18:55;;;;;;;9.02;6.22;;;;;;;3.18;100.00;96150.56;4990466;28;20058;-81
2021/01/24 06:21:33;;;;;;;11.32;6.28;;;;;;;2.96;100.00;96140.38;4992394;28;20384;-80
2021/01/24 06:24:28;;;;;;;8.73;6.60;;;;;;;3.04;100.00;96138.88;4992651;28;20057;-80
2021/01/24 06:26:58;;;;;;;8.00;6.35;;;;;;;2.93;100.00;96135.53;4988726;28;20070;-85
2021/01/24 06:29:28;;;;;;;8.50;5.70;;;;;;;2.86;100.00;96134.28;4991007;28;20026;-79
2021/01/24 06:31:55;;;;;;;18.65;10.38;;;;;;;2.93;100.00;96130.16;4991370;28;20026;-83
2021/01/24 06:34:38;;;;;;;14.70;8.45;;;;;;;2.67;100.00;96139.69;4992345;28;20368;-79
2021/01/24 06:37:05;;;;;;;8.73;6.13;;;;;;;2.67;100.00;96145.06;4992384;28;20026;-78
2021/01/24 06:39:32;;;;;;;7.90;5.85;;;;;;;2.71;100.00;96140.72;4992201;28;20483;-77
2021/01/24 06:41:57;;;;;;;10.45;7.68;;;;;;;2.60;100.00;96150.81;4991269;28;20042;-82
2021/01/24 06:44:37;;;;;;;9.40;7.00;;;;;;;2.55;100.00;96164.38;4990976;28;20022;-77
2021/01/24 06:47:04;;;;;;;16.23;9.50;;;;;;;2.46;100.00;96149.13;4991227;28;20018;-82
2021/01/24 06:49:44;;;;;;;7.82;6.10;;;;;;;2.23;100.00;96128.34;4991438;28;20057;-79
2021/01/24 06:52:18;;;;;;;10.45;6.45;;;;;;;2.21;100.00;96154.81;4992668;28;20487;-80
2021/01/24 06:54:44;;;;;;;8.98;6.53;;;;;;;2.10;100.00;96146.00;4992482;28;20487;-77
2021/01/24 06:57:10;;;;;;;8.68;6.07;;;;;;;2.22;100.00;96140.25;4992607;28;20072;-78
2021/01/24 06:59:36;;;;;;;12.45;7.57;;;;;;;2.26;100.00;96150.16;4991735;28;20026;-81
2021/01/24 07:02:26;;;;;;;8.85;5.65;;;;;;;2.19;100.00;96181.25;4992378;28;20038;-82
2021/01/24 07:05:16;;;;;;;9.25;5.10;;;;;;;2.36;100.00;96168.94;5008594;28;20029;-82
2021/01/24 07:07:49;;;;;;;8.88;5.68;;;;;;;2.47;100.00;96191.22;5010945;28;20483;-83
2021/01/24 07:10:39;;;;;;;12.98;6.70;;;;;;;2.31;100.00;96181.69;4996218;28;20027;-81
2021/01/24 07:13:26;;;;;;;7.97;6.18;;;;;;;2.23;100.00;96198.47;4992825;28;20364;-80
2021/01/24 07:15:56;;;;;;;7.57;5.70;;;;;;;2.30;100.00;96193.53;4991502;28;20026;-80
2021/01/24 07:18:22;;;;;;;9.63;5.68;;;;;;;2.40;100.00;96182.66;4993050;28;20042;-80
2021/01/24 07:20:50;;;;;;;11.38;7.15;;;;;;;2.52;100.00;96186.53;5002114;28;20050;-88
2021/01/24 07:23:17;;;;;;;10.60;6.78;;;;;;;2.72;100.00;96184.69;5017112;28;20034;-90
2021/01/24 07:25:43;;;;;;;11.52;6.20;;;;;;;2.86;100.00;96191.78;5012313;28;20091;-87
2021/01/24 07:28:10;;;;;;;6.45;5.03;;;;;;;2.79;100.00;96199.44;5011970;28;20022;-90
2021/01/24 07:30:39;;;;;;;7.43;5.68;;;;;;;2.81;100.00;96166.75;5014047;28;20014;-86
2021/01/24 07:33:05;;;;;;;8.57;5.82;;;;;;;2.65;100.00;96168.84;5015916;28;20053;-89
2021/01/24 07:35:34;;;;;;;10.35;6.45;;;;;;;2.68;100.00;96179.06;5016569;28;20018;-89
2021/01/24 07:38:00;;;;;;;8.38;5.70;;;;;;;2.64;100.00;96151.06;5021329;28;20022;-87
2021/01/24 07:40:28;;;;;;;7.55;5.90;;;;;;;2.86;100.00;96197.19;5001594;28;20029;-92
2021/01/24 07:42:56;;;;;;;7.65;4.93;;;;;;;3.04;100.00;96199.09;5020353;28;20068;-90
2021/01/24 07:45:22;;;;;;;10.30;6.15;;;;;;;2.94;99.76;96171.47;5014993;28;20061;-90
2021/01/24 07:47:53;;;;;;;7.70;5.10;;;;;;;3.05;98.83;96168.31;5008058;28;20022;-90
2021/01/24 07:50:19;;;;;;;8.73;5.82;;;;;;;3.26;98.07;96206.63;5009020;28;20046;-90
2021/01/24 07:52:45;;;;;;;8.20;5.95;;;;;;;3.34;97.50;96197.88;5004334;28;20030;-88
2021/01/24 07:55:13;;;;;;;7.22;5.35;;;;;;;3.33;97.90;96192.75;4999484;28;20025;-86
2021/01/24 07:57:39;;;;;;;9.18;6.47;;;;;;;3.54;98.86;96184.06;5003297;28;20084;-91
2021/01/24 08:00:06;;;;;;;9.38;6.13;;;;;;;4.00;97.45;96200.34;5008058;28;20018;-91
2021/01/24 08:02:36;;;;;;;9.10;5.68;;;;;;;3.50;96.54;96179.56;4995489;28;20066;-90
2021/01/24 08:05:05;;;;;;;10.77;5.78;;;;;;;3.53;97.35;96178.97;5012949;28;20103;-90
2021/01/24 08:07:31;;;;;;;10.70;6.13;;;;;;;3.46;97.71;96200.13;5004519;28;20022;-91
2021/01/24 08:09:57;;;;;;;10.60;6.38;;;;;;;3.24;97.75;96169.13;4999187;28;20377;-90
2021/01/24 08:12:25;;;;;;;10.07;5.68;;;;;;;3.66;97.63;96199.84;5001630;28;20034;-87
2021/01/24 08:14:52;;;;;;;7.40;4.97;;;;;;;3.54;96.43;96207.59;4994893;28;20038;-89
2021/01/24 08:17:19;;;;;;;12.52;7.65;;;;;;;3.26;96.74;96209.34;4994206;28;20054;-91
2021/01/24 08:19:46;;;;;;;8.07;5.45;;;;;;;3.34;97.33;96200.59;4993532;28;20061;-90
2021/01/24 08:22:11;;;;;;;16.80;9.45;;;;;;;3.13;98.43;96216.25;4998971;28;20459;-91
2021/01/24 08:24:39;;;;;;;14.93;8.85;;;;;;;2.76;98.57;96191.13;4997008;28;20030;-87
2021/01/24 08:27:05;;;;;;;14.65;8.18;;;;;;;2.65;99.02;96206.63;4992531;28;20030;-89
2021/01/24 08:29:35;;;;;;;29.23;14.48;;;;;;;2.65;99.35;96203.94;4991681;28;20029;-88
2021/01/24 08:32:02;;;;;;;12.75;8.60;;;;;;;2.57;99.98;96191.88;4990880;28;20033;-83
2021/01/24 08:34:29;;;;;;;11.27;7.90;;;;;;;2.69;100.00;96204.97;4994716;28;20054;-75
2021/01/24 08:36:55;;;;;;;9.88;8.00;;;;;;;2.70;100.00;96190.38;4993447;28;20058;-79
2021/01/24 08:39:23;;;;;;;13.18;7.30;;;;;;;2.67;100.00;96193.66;4993602;28;20026;-82
2021/01/24 08:41:52;;;;;;;10.40;7.05;;;;;;;2.61;100.00;96179.41;5001969;28;20144;-78
2021/01/24 08:44:18;;;;;;;10.32;6.75;;;;;;;2.79;100.00;96194.03;5006244;28;20064;-81
2021/01/24 08:46:49;;;;;;;10.32;6.55;;;;;;;2.92;100.00;96195.22;5005001;28;20045;-76
2021/01/24 08:49:25;;;;;;;14.73;9.32;;;;;;;2.78;100.00;96184.34;5001246;28;20085;-85
2021/01/24 08:51:57;;;;;;;12.93;7.30;;;;;;;2.68;100.00;96184.47;5001124;28;20036;-75
2021/01/24 08:54:24;;;;;;;12.70;8.18;;;;;;;3.07;100.00;96186.94;5000988;28;20089;-84
2021/01/24 08:56:51;;;;;;;12.98;8.52;;;;;;;3.12;100.00;96179.56;5010867;28;20022;-87
2021/01/24 08:59:26;;;;;;;11.50;7.93;;;;;;;3.11;100.00;96177.13;5008536;28;20022;-83
2021/01/24 09:01:54;;;;;;;14.07;9.00;;;;;;;3.45;100.00;96188.53;5002537;28;20759;-79
2021/01/24 09:04:22;;;;;;;14.95;9.30;;;;;;;3.27;100.00;96191.22;5002277;28;20021;-84
2021/01/24 09:07:01;;;;;;;11.77;7.97;;;;;;;3.09;100.00;96200.94;5003111;28;20506;-81
2021/01/24 09:09:27;;;;;;;14.65;8.60;;;;;;;3.15;100.00;96218.69;5004294;28;20026;-80
2021/01/24 09:11:53;;;;;;;10.63;7.15;;;;;;;3.24;100.00;96211.53;5003931;28;20026;-84
2021/01/24 09:14:19;;;;;;;12.93;8.23;;;;;;;3.39;100.00;96215.91;5003164;28;20049;-84
2021/01/24 09:16:55;;;;;;;13.63;9.00;;;;;;;3.29;100.00;96207.97;5007012;28;20126;-91
2021/01/24 09:19:20;;;;;;;17.90;10.90;;;;;;;3.54;100.00;96242.72;4988743;28;20049;-89
2021/01/24 09:21:46;;;;;;;14.93;9.48;;;;;;;3.27;99.85;96240.66;5004469;28;20034;-88
2021/01/24 09:24:11;;;;;;;13.93;8.40;;;;;;;3.33;100.00;96238.69;5005058;28;20053;-87
2021/01/24 09:26:36;;;;;;;;;;;;;;;3.43;100.00;96238.56;5002791;28;20399;-83
2021/01/24 09:29:02;;;;;;;13.15;9.10;;;;;;;3.41;99.64;96230.75;5004608;28;19920;-87
2021/01/24 09:31:27;;;;;;;14.20;9.02;;;;;;;3.32;99.07;96231.69;5005823;28;20026;-89
2021/01/24 09:33:55;;;;;;;;;;;;;;;3.28;99.71;96252.28;5002889;28;20446;-88
2021/01/24 09:36:21;;;;;;;11.55;8.18;;;;;;;3.40;99.77;96264.25;5002526;28;20346;-90
2021/01/24 09:38:47;;;;;;;13.45;7.68;;;;;;;3.38;100.00;96249.44;5002568;28;20099;-84
2021/01/24 09:41:13;;;;;;;11.10;7.82;;;;;;;3.35;99.79;96231.13;5002337;28;20018;-89
2021/01/24 09:43:38;;;;;;;11.65;8.38;;;;;;;3.42;100.00;96226.13;5003824;28;20088;-85
2021/01/24 09:46:09;;;;;;;13.55;9.63;;;;;;;3.50;100.00;96217.38;5004594;28;20034;-88
2021/01/24 09:48:34;;;;;;;14.73;9.25;;;;;;;3.58;99.48;96238.31;4999225;28;20018;-90
2021/01/24 09:51:00;;;;;;;13.95;7.53;;;;;;;3.47;98.58;96218.78;4998059;28;20471;-91
2021/01/24 09:53:26;;;;;;;9.55;6.80;;;;;;;3.45;99.00;96220.13;5003782;28;20021;-87
2021/01/24 09:55:57;;;;;;;9.80;6.90;;;;;;;3.60;99.20;96222.63;5003069;28;20379;-87
2021/01/24 09:58:24;;;;;;;10.77;6.35;;;;;;;3.75;98.55;96230.50;4999703;28;20031;-87
2021/01/24 10:00:52;;;;;;;8.23;6.78;;;;;;;3.64;97.72;96220.94;4999371;28;20678;-89
2021/01/24 10:03:18;;;;;;;10.70;6.95;;;;;;;3.47;97.71;96212.56;5000793;28;20029;-88
2021/01/24 10:05:44;;;;;;;6.75;6.00;;;;;;;3.32;98.29;96205.47;5008902;28;20022;-85
2021/01/24 10:08:16;;;;;;;10.50;5.95;;;;;;;3.79;98.69;96226.09;5008198;28;20017;-78
2021/01/24 10:10:42;;;;;;;8.38;5.85;;;;;;;3.75;98.57;96227.81;5001061;28;20030;-78
2021/01/24 10:13:12;;;;;;;10.65;7.22;;;;;;;3.61;98.54;96203.41;5004277;28;20024;-75
2021/01/24 10:15:42;;;;;;;8.77;6.43;;;;;;;3.59;98.34;96216.44;5005604;28;20088;-77
2021/01/24 10:18:08;;;;;;;9.25;6.38;;;;;;;3.70;97.49;96228.69;5007534;28;20472;-77
2021/01/24 10:20:34;;;;;;;10.57;6.80;;;;;;;3.78;97.85;96213.69;5006431;28;20060;-75
2021/01/24 10:23:03;;;;;;;9.43;6.20;;;;;;;3.66;97.50;96205.25;5006441;28;20108;-76
2021/01/24 10:25:29;;;;;;;8.30;5.85;;;;;;;3.58;97.13;96214.00;5005537;28;20026;-75
2021/01/24 10:27:55;;;;;;;8.23;5.80;;;;;;;3.61;97.47;96203.41;5016177;28;20060;-75
2021/01/24 10:30:21;;;;;;;11.60;5.40;;;;;;;3.61;97.43;96187.19;5016206;28;20697;-76
2021/01/24 10:32:47;;;;;;;7.55;5.10;;;;;;;3.85;97.21;96211.44;5014342;28;20166;-76
2021/01/24 10:35:15;;;;;;;11.05;6.80;;;;;;;3.84;96.56;96195.47;5001275;28;20480;-76
2021/01/24 10:37:41;;;;;;;7.30;6.32;;;;;;;3.84;96.64;96179.25;5008223;28;20147;-80
2021/01/24 10:40:09;;;;;;;8.60;5.10;;;;;;;3.86;96.98;96210.31;5004140;28;20057;-75
2021/01/24 10:42:37;;;;;;;8.13;5.55;;;;;;;3.76;97.79;96210.47;5002856;28;20053;-75
2021/01/24 10:45:04;;;;;;;8.63;6.28;;;;;;;3.58;97.54;96181.56;5005352;28;20548;-75
2021/01/24 10:47:29;;;;;;;14.95;8.32;;;;;;;3.48;98.16;96176.31;5003228;28;20127;-75
2021/01/24 10:49:56;;;;;;;12.38;7.38;;;;;;;3.53;98.70;96189.78;5007681;28;20739;-77
2021/01/24 10:52:22;;;;;;;12.05;6.47;;;;;;;3.63;98.09;96208.53;5006847;28;20026;-82
2021/01/24 10:54:58;;;;;;;9.10;6.13;;;;;;;3.59;97.84;96199.41;5005107;28;20022;-76
2021/01/24 10:57:24;;;;;;;9.63;5.85;;;;;;;3.49;97.73;96170.63;5005258;28;20033;-80
2021/01/24 10:59:49;;;;;;;6.30;4.88;;;;;;;3.75;98.01;96179.13;5003210;28;20022;-76
2021/01/24 11:02:16;;;;;;;7.10;5.57;;;;;;;3.85;97.46;96178.16;5002459;28;20026;-77
2021/01/24 11:04:41;;;;;;;8.88;5.57;;;;;;;3.74;97.70;96182.94;5000367;28;20053;-75
2021/01/24 11:07:07;;;;;;;8.05;5.90;;;;;;;3.72;96.24;96164.31;5005208;28;20499;-75
2021/01/24 11:09:50;;;;;;;6.18;4.75;;;;;;;3.87;95.51;96190.28;5002441;28;20030;-81
2021/01/24 11:12:16;;;;;;;7.72;5.22;;;;;;;3.73;96.14;96184.03;5002045;28;20041;-76
2021/01/24 11:14:47;;;;;;;8.82;5.18;;;;;;;3.64;95.97;96186.59;5004975;28;20030;-77
2021/01/24 11:17:13;;;;;;;7.47;4.90;;;;;;;3.60;96.17;96176.69;4998258;28;20019;-78
2021/01/24 11:19:41;;;;;;;7.18;5.30;;;;;;;3.67;95.26;96163.56;5002348;28;20026;-75
2021/01/24 11:22:06;;;;;;;6.80;4.93;;;;;;;3.75;94.96;96165.63;5000259;28;20534;-78
2021/01/24 11:24:32;;;;;;;8.13;4.85;;;;;;;3.74;94.26;96158.59;4999983;28;20029;-78
2021/01/24 11:26:58;;;;;;;;;;;;;;;3.76;95.40;96161.81;5000199;28;20414;-78
2021/01/24 11:32:37;;;;;;;9.30;6.13;;;;;;;3.85;95.47;96164.66;4955181;28;20115;-81
2021/01/24 11:35:04;;;;;;;8.35;5.30;;;;;;;3.84;95.95;96142.22;4945824;28;20066;-77
2021/01/24 11:37:32;;;;;;;10.45;5.60;;;;;;;3.74;95.91;96136.97;5020323;23;20076;-78
2021/01/24 11:40:14;;;;;;;9.23;5.70;;;;;;;3.73;95.77;96152.38;5007453;28;20415;-75
2021/01/24 11:42:41;;;;;;;8.40;6.03;;;;;;;3.63;95.79;96147.16;4991544;28;20038;-77
2021/01/24 11:45:45;;;;;;;10.45;6.65;;;;;;;3.44;96.53;96156.41;4988206;28;20046;-77
2021/01/24 11:48:28;;;;;;;8.80;6.38;;;;;;;3.36;96.91;96140.84;5006218;28;20145;-80